Time;durP1;ratioP1;P1;durP2;ratioP2;P2;SDS_P1;SDS_P2;PMS_P1;PMS_P2;Temp;Humidity;BMP_temperature;BMP_pressure;BME280_temperature;BME280_humidity;BME280_pressure;Samples;Min_cycle;Max_cycle;Signal;HPM_P1;HPM_P2
2022/05/19 00:03:03;;;;;;;;;;;;;;;23.01;39.56;96203.41;10337816;28;1921;-61
2022/05/19 00:08:04;;;;;;;;;;;;;;;23.01;39.71;96205.25;10336567;28;1821;-62
2022/05/19 00:13:05;;;;;;;;;;;;;;;23.02;39.42;96202.34;10324286;28;2280;-62
2022/05/19 00:18:05;;;;;;;;;;;;;;;23.01;39.45;96199.97;10345667;28;2204;-62
2022/05/19 00:23:06;;;;;;;;;;;;;;;23.02;39.44;96191.00;10353498;28;1918;-63
2022/05/19 00:28:06;;;;;;;;;;;;;;;23.03;39.96;96189.91;10358873;28;1896;-63
2022/05/19 00:33:08;;;;;;;;;;;;;;;23.03;39.47;96182.78;10345062;28;1832;-63
2022/05/19 00:38:09;;;;;;;;;;;;;;;23.04;39.53;96183.56;10361178;28;1974;-63
2022/05/19 00:43:09;;;;;;;;;;;;;;;23.03;39.69;96179.34;10351905;28;1975;-63
2022/05/19 00:48:15;;;;;;;;;;;;;;;23.04;39.67;96175.63;10355429;28;2429;-64
2022/05/19 00:53:28;;;;;;;;;;;;;;;23.04;39.77;96173.00;10327163;28;1985;-63
2022/05/19 00:58:48;;;;;;;;;;;;;;;23.04;39.71;96175.63;10329172;28;2058;-63
2022/05/19 01:03:52;;;;;;;;;;;;;;;23.02;39.47;96175.88;10346278;28;1922;-62
2022/05/19 01:08:56;;;;;;;;;;;;;;;23.04;39.78;96178.28;10354976;28;1991;-63
2022/05/19 01:13:56;;;;;;;;;;;;;;;23.05;39.76;96177.19;10318096;28;1986;-62
2022/05/19 01:19:00;;;;;;;;;;;;;;;23.04;39.75;96176.41;10337908;28;2021;-63
2022/05/19 01:24:04;;;;;;;;;;;;;;;23.05;39.47;96174.56;10338803;28;2058;-63
2022/05/19 01:29:04;;;;;;;;;;;;;;;23.04;39.60;96173.75;10360514;28;1997;-63
2022/05/19 01:34:11;;;;;;;;;;;;;;;23.05;39.78;96169.25;10356630;28;2061;-63
2022/05/19 01:39:13;;;;;;;;;;;;;;;23.05;39.60;96174.56;10354886;28;1951;-63
2022/05/19 01:44:16;;;;;;;;;;;;;;;23.04;39.54;96167.69;10337378;28;1911;-63
2022/05/19 01:49:21;;;;;;;;;;;;;;;23.03;39.50;96164.25;10349911;28;1979;-63
2022/05/19 01:54:34;;;;;;;;;;;;;;;23.04;39.75;96163.19;10353646;28;1931;-63
2022/05/19 01:59:45;;;;;;;;;;;;;;;23.03;39.68;96160.81;10339266;28;1985;-63
2022/05/19 02:04:48;;;;;;;;;;;;;;;23.05;39.84;96177.19;10337510;28;1972;-63
2022/05/19 02:09:55;;;;;;;;;;;;;;;23.04;39.69;96173.75;10339800;28;2210;-63
2022/05/19 02:14:59;;;;;;;;;;;;;;;23.04;39.74;96170.34;10353010;28;2110;-63
2022/05/19 02:20:03;;;;;;;;;;;;;;;23.04;39.83;96175.63;10337754;28;2004;-62
2022/05/19 02:25:14;;;;;;;;;;;;;;;23.05;39.75;96174.56;10333899;28;2010;-63
2022/05/19 02:30:15;;;;;;;;;;;;;;;23.04;39.90;96178.28;10328262;28;2078;-63
2022/05/19 02:35:16;;;;;;;;;;;;;;;23.03;39.89;96172.19;10328040;28;2063;-63
2022/05/19 02:40:17;;;;;;;;;;;;;;;23.04;39.63;96178.28;10343114;28;1941;-63
2022/05/19 02:45:18;;;;;;;;;;;;;;;23.04;39.69;96173.00;10340037;28;2079;-63
2022/05/19 02:50:19;;;;;;;;;;;;;;;23.03;39.79;96171.41;10353321;28;1975;-62
2022/05/19 02:55:19;;;;;;;;;;;;;;;23.03;39.58;96168.75;10336943;28;1973;-63
2022/05/19 03:00:20;;;;;;;;;;;;;;;23.05;39.67;96169.25;10353290;28;1970;-63
2022/05/19 03:05:24;;;;;;;;;;;;;;;23.04;39.85;96165.06;10349177;28;1893;-62
2022/05/19 03:10:24;;;;;;;;;;;;;;;23.03;39.76;96160.81;10331971;28;1940;-62
2022/05/19 03:15:25;;;;;;;;;;;;;;;23.03;39.48;96166.91;10351096;28;1947;-63
2022/05/19 03:20:26;;;;;;;;;;;;;;;23.02;39.87;96164.53;10323619;28;1926;-62
2022/05/19 03:25:26;;;;;;;;;;;;;;;23.01;39.72;96162.97;10352568;28;2037;-63
2022/05/19 03:30:26;;;;;;;;;;;;;;;23.03;39.68;96171.41;10340704;28;1947;-63
2022/05/19 03:35:26;;;;;;;;;;;;;;;23.00;39.56;96170.09;10325069;28;1949;-63
2022/05/19 03:40:27;;;;;;;;;;;;;;;23.01;39.71;96168.25;10324209;28;2063;-63
2022/05/19 03:45:27;;;;;;;;;;;;;;;23.02;39.41;96170.59;10325053;28;1984;-63
2022/05/19 03:50:27;;;;;;;;;;;;;;;23.02;39.48;96173.25;10351540;28;1853;-63
2022/05/19 03:55:28;;;;;;;;;;;;;;;23.02;39.68;96170.59;10333940;28;2263;-63
2022/05/19 04:00:28;;;;;;;;;;;;;;;23.03;39.74;96171.41;10338429;28;1897;-64
2022/05/19 04:05:28;;;;;;;;;;;;;;;23.04;39.70;96175.63;10337128;28;1897;-63
2022/05/19 04:10:29;;;;;;;;;;;;;;;23.05;39.43;96182.47;10333456;28;2024;-63
2022/05/19 04:15:30;;;;;;;;;;;;;;;22.98;39.07;96180.16;10350991;28;1969;-62
2022/05/19 04:20:30;;;;;;;;;;;;;;;22.93;39.24;96187.34;10344575;28;1975;-64
2022/05/19 04:25:31;;;;;;;;;;;;;;;22.90;39.01;96187.91;10334882;28;1987;-63
2022/05/19 04:30:31;;;;;;;;;;;;;;;22.84;38.54;96183.72;10366415;28;1933;-61
2022/05/19 04:35:32;;;;;;;;;;;;;;;22.78;38.43;96182.97;10333533;28;1918;-63
2022/05/19 04:40:34;;;;;;;;;;;;;;;22.75;38.44;96191.44;10351941;28;1843;-62
2022/05/19 04:45:34;;;;;;;;;;;;;;;22.71;38.11;96189.66;10342392;28;1979;-63
2022/05/19 04:50:35;;;;;;;;;;;;;;;22.67;38.36;96190.19;10337551;28;1786;-64
2022/05/19 04:55:36;;;;;;;;;;;;;;;22.67;38.13;96193.91;10339216;28;2039;-63
2022/05/19 05:00:36;;;;;;;;;;;;;;;22.64;37.99;96192.63;10349170;28;1824;-63
2022/05/19 05:05:37;;;;;;;;;;;;;;;22.61;38.09;96193.94;10335134;28;2047;-63
2022/05/19 05:10:37;;;;;;;;;;;;;;;22.60;37.83;96189.75;10340217;28;1889;-63
2022/05/19 05:15:38;;;;;;;;;;;;;;;22.58;37.86;96204.28;10349337;28;2180;-64
2022/05/19 05:20:40;;;;;;;;;;;;;;;22.57;37.94;96205.31;10343847;28;2077;-63
2022/05/19 05:25:40;;;;;;;;;;;;;;;22.55;37.90;96210.06;10358209;28;1793;-64
2022/05/19 05:30:42;;;;;;;;;;;;;;;22.55;37.94;96202.16;10352788;28;1866;-64
2022/05/19 05:35:42;;;;;;;;;;;;;;;22.55;37.77;96202.16;10353695;28;1915;-64
2022/05/19 05:40:42;;;;;;;;;;;;;;;22.58;37.75;96209.56;10367768;28;1835;-63
2022/05/19 05:45:43;;;;;;;;;;;;;;;22.57;37.98;96215.88;10360643;28;1821;-63
2022/05/19 05:50:44;;;;;;;;;;;;;;;22.56;37.75;96220.38;10357896;28;1868;-63
2022/05/19 05:55:45;;;;;;;;;;;;;;;22.57;37.96;96224.59;10337412;28;1914;-62
2022/05/19 06:00:45;;;;;;;;;;;;;;;22.58;38.02;96223.56;10352181;28;1892;-63
2022/05/19 06:05:46;;;;;;;;;;;;;;;22.60;38.39;96224.09;10355590;28;1846;-62
2022/05/19 06:10:46;;;;;;;;;;;;;;;22.40;37.34;96213.59;10336537;28;1813;-63
2022/05/19 06:15:47;;;;;;;;;;;;;;;22.24;37.83;96221.88;10336413;28;1969;-61
2022/05/19 06:20:48;;;;;;;;;;;;;;;22.30;38.40;96226.06;10335594;28;1817;-62
2022/05/19 06:25:48;;;;;;;;;;;;;;;22.32;38.67;96222.09;10342271;28;1806;-61
2022/05/19 06:30:48;;;;;;;;;;;;;;;22.30;38.79;96229.50;10358594;28;1867;-61
2022/05/19 06:35:49;;;;;;;;;;;;;;;22.42;38.92;96226.56;10370048;28;1934;-61
2022/05/19 06:40:49;;;;;;;;;;;;;;;22.52;38.86;96232.53;10355467;28;1905;-61
2022/05/19 06:45:49;;;;;;;;;;;;;;;22.60;39.02;96226.72;10365646;28;1979;-62
2022/05/19 06:50:50;;;;;;;;;;;;;;;22.77;39.00;96220.28;10353539;28;1804;-59
2022/05/19 06:55:50;;;;;;;;;;;;;;;22.84;38.74;96226.00;10351260;28;1894;-60
2022/05/19 07:00:50;;;;;;;;;;;;;;;22.89;38.87;96223.34;10353725;28;1869;-59
2022/05/19 07:05:51;;;;;;;;;;;;;;;22.92;38.83;96228.06;10358495;28;2030;-58
2022/05/19 07:10:51;;;;;;;;;;;;;;;22.81;38.56;96237.16;10346090;28;1796;-62
2022/05/19 07:15:52;;;;;;;;;;;;;;;22.63;39.02;96230.66;10340745;28;2255;-62
2022/05/19 07:20:52;;;;;;;;;;;;;;;22.48;39.01;96228.09;10349754;28;1963;-62
2022/05/19 07:25:54;;;;;;;;;;;;;;;22.46;39.10;96228.34;10347618;28;1839;-60
2022/05/19 07:30:54;;;;;;;;;;;;;;;22.52;39.42;96235.19;10340806;28;1863;-62
2022/05/19 07:35:55;;;;;;;;;;;;;;;22.67;39.43;96236.19;10363966;28;1989;-62
2022/05/19 07:40:55;;;;;;;;;;;;;;;22.72;39.57;96231.66;10340507;28;1875;-59
2022/05/19 07:45:57;;;;;;;;;;;;;;;22.78;39.28;96241.13;10336988;28;1994;-61
2022/05/19 07:50:57;;;;;;;;;;;;;;;22.84;39.26;96241.88;10339134;28;1800;-61
2022/05/19 07:55:58;;;;;;;;;;;;;;;22.87;39.42;96225.47;10341380;28;1952;-61
2022/05/19 08:00:59;;;;;;;;;;;;;;;22.91;39.46;96231.78;10349246;28;2172;-60
2022/05/19 08:06:00;;;;;;;;;;;;;;;22.93;39.45;96234.94;10350407;28;1844;-61
2022/05/19 08:11:00;;;;;;;;;;;;;;;22.97;39.48;96235.97;10351863;28;1836;-59
2022/05/19 08:16:01;;;;;;;;;;;;;;;23.00;39.72;96230.91;10347994;28;1970;-61
2022/05/19 08:21:02;;;;;;;;;;;;;;;23.03;39.67;96232.22;10349958;28;1817;-60
2022/05/19 08:26:03;;;;;;;;;;;;;;;23.05;39.68;96228.22;10343442;28;2046;-60
2022/05/19 08:31:04;;;;;;;;;;;;;;;23.05;39.61;96225.59;10335490;28;1883;-59
2022/05/19 08:36:05;;;;;;;;;;;;;;;23.09;39.89;96228.47;10351957;28;1914;-60
2022/05/19 08:41:06;;;;;;;;;;;;;;;23.10;39.64;96236.09;10353787;28;1996;-56
2022/05/19 08:46:06;;;;;;;;;;;;;;;23.11;40.19;96231.59;10337433;28;1809;-60
2022/05/19 08:51:07;;;;;;;;;;;;;;;23.11;40.08;96226.31;10326621;28;1871;-58
2022/05/19 08:56:27;;;;;;;;;;;;;;;23.12;39.87;96227.91;10355911;28;1906;-60
2022/05/19 09:01:28;;;;;;;;;;;;;;;23.14;40.17;96231.84;10334217;28;1925;-60
2022/05/19 09:06:34;;;;;;;;;;;;;;;23.16;40.42;96215.72;10342111;28;1946;-61
2022/05/19 09:12:01;;;;;;;;;;;;;;;23.14;40.35;96221.25;10344075;28;2617;-63
2022/05/19 09:17:03;;;;;;;;;;;;;;;23.23;40.63;96218.81;10350099;28;1906;-64
2022/05/19 09:22:05;;;;;;;;;;;;;;;23.18;41.00;96216.22;10346049;28;1801;-63
2022/05/19 09:27:06;;;;;;;;;;;;;;;23.19;40.45;96223.88;10342321;28;1825;-64
2022/05/19 09:32:26;;;;;;;;;;;;;;;23.24;40.83;96215.91;10356318;28;1804;-64
2022/05/19 09:37:37;;;;;;;;;;;;;;;23.26;41.29;96218.25;10360488;28;1996;-63
2022/05/19 09:42:54;;;;;;;;;;;;;;;23.35;41.26;96212.09;10354800;28;1913;-63
2022/05/19 09:48:00;;;;;;;;;;;;;;;23.34;41.09;96209.75;10342905;28;2139;-63
2022/05/19 09:53:02;;;;;;;;;;;;;;;23.35;41.73;96212.09;10350129;28;1856;-64
2022/05/19 09:58:02;;;;;;;;;;;;;;;23.35;41.84;96206.81;10358424;28;2009;-63
2022/05/19 10:03:03;;;;;;;;;;;;;;;23.37;41.73;96217.91;10333633;28;1887;-64
2022/05/19 10:08:12;;;;;;;;;;;;;;;23.35;41.50;96201.53;10339443;28;1830;-63
2022/05/19 10:13:12;;;;;;;;;;;;;;;23.37;41.69;96203.88;10343400;28;2008;-62
2022/05/19 10:18:13;;;;;;;;;;;;;;;23.36;41.47;96197.03;10355067;28;1942;-63
2022/05/19 10:23:15;;;;;;;;;;;;;;;23.35;41.45;96196.22;10349551;28;1880;-63
2022/05/19 10:33:35;;;;;;;;;;;;;;;23.35;41.60;96184.84;10335786;28;1854;-63
2022/05/19 10:38:36;;;;;;;;;;;;;;;;;;10333223;28;1910;-63
2022/05/19 10:43:37;;;;;;;;;;;;;;;23.35;41.75;96184.84;10333129;28;1824;-63
2022/05/19 10:48:41;;;;;;;;;;;;;;;23.35;41.56;96179.56;10353638;28;2046;-63
2022/05/19 10:53:41;;;;;;;;;;;;;;;;;;10333109;28;2287;-62
2022/05/19 10:58:42;;;;;;;;;;;;;;;23.35;41.68;96175.06;10344258;28;2225;-63
2022/05/19 11:03:47;;;;;;;;;;;;;;;23.35;41.52;96168.97;10352748;28;1879;-63
2022/05/19 11:09:00;;;;;;;;;;;;;;;23.36;41.66;96171.38;10327692;28;1926;-62
2022/05/19 11:14:17;;;;;;;;;;;;;;;23.35;41.75;96166.34;10345550;28;1925;-63
2022/05/19 11:19:18;;;;;;;;;;;;;;;23.36;41.69;96166.06;10319846;28;1911;-63
2022/05/19 11:24:24;;;;;;;;;;;;;;;23.36;41.46;96160.00;10320649;28;1780;-62
2022/05/19 11:29:27;;;;;;;;;;;;;;;23.37;41.86;96156.25;10339963;28;1843;-63
2022/05/19 11:34:43;;;;;;;;;;;;;;;23.37;41.61;96153.63;10355853;28;1844;-61
2022/05/19 11:39:56;;;;;;;;;;;;;;;23.37;41.63;96145.69;10319623;28;1989;-62
2022/05/19 11:44:57;;;;;;;;;;;;;;;23.37;41.88;96149.13;10312108;28;1918;-64
2022/05/19 11:55:21;;;;;;;;;;;;;;;23.38;41.94;96141.97;10316054;28;1866;-63
2022/05/19 12:00:23;;;;;;;;;;;;;;;23.38;41.84;96131.41;10346802;28;1907;-62
2022/05/19 12:05:27;;;;;;;;;;;;;;;23.39;42.02;96138.25;10345671;28;1888;-63
2022/05/19 12:10:31;;;;;;;;;;;;;;;23.38;41.69;96137.47;10332432;28;1757;-62
2022/05/19 12:15:36;;;;;;;;;;;;;;;23.37;41.93;96121.88;10342527;28;1849;-63
2022/05/19 12:20:53;;;;;;;;;;;;;;;23.39;41.96;96119.72;10360291;28;1979;-62
2022/05/19 12:26:13;;;;;;;;;;;;;;;23.39;42.00;96125.00;10356952;28;1710;-62
2022/05/19 12:36:53;;;;;;;;;;;;;;;23.39;42.04;96122.38;10340232;28;2178;-63
2022/05/19 12:41:54;;;;;;;;;;;;;;;23.40;42.17;96116.03;10345988;28;1851;-63
2022/05/19 12:47:07;;;;;;;;;;;;;;;23.40;42.07;96113.38;10342110;28;1813;-62
2022/05/19 12:52:09;;;;;;;;;;;;;;;23.39;42.24;96109.16;10354301;28;2173;-61
2022/05/19 12:57:10;;;;;;;;;;;;;;;23.39;42.29;96114.44;10343637;28;1915;-60
2022/05/19 13:02:11;;;;;;;;;;;;;;;23.40;41.96;96108.09;10357421;28;1821;-62
2022/05/19 13:07:15;;;;;;;;;;;;;;;23.40;42.14;96116.03;10342573;28;1867;-62
2022/05/19 13:12:16;;;;;;;;;;;;;;;23.40;42.23;96114.19;10335099;28;1844;-62
2022/05/19 13:17:22;;;;;;;;;;;;;;;23.41;42.25;96110.44;10335274;28;1973;-62
2022/05/19 13:22:26;;;;;;;;;;;;;;;23.40;42.12;96105.44;10354081;28;1809;-63
2022/05/19 13:32:46;;;;;;;;;;;;;;;23.40;42.47;96097.50;10354976;28;1843;-62
2022/05/19 13:37:46;;;;;;;;;;;;;;;23.42;42.53;96100.66;10357148;28;1906;-63
2022/05/19 13:42:51;;;;;;;;;;;;;;;23.41;42.38;96094.56;10339484;28;1710;-64
2022/05/19 13:47:52;;;;;;;;;;;;;;;23.41;42.55;96084.00;10321024;28;1870;-62
2022/05/19 13:52:53;;;;;;;;;;;;;;;23.41;42.49;96089.28;10337979;28;1812;-62
2022/05/19 13:57:54;;;;;;;;;;;;;;;23.41;42.47;96080.56;10334687;28;1969;-63
2022/05/19 14:02:55;;;;;;;;;;;;;;;23.42;42.51;96074.19;10350778;28;1865;-62
2022/05/19 14:07:59;;;;;;;;;;;;;;;23.42;42.63;96071.56;10345337;28;1863;-63
2022/05/19 14:13:01;;;;;;;;;;;;;;;23.42;42.29;96077.63;10351856;28;1844;-63
2022/05/19 14:18:03;;;;;;;;;;;;;;;23.42;42.55;96071.56;10356146;28;1964;-62
2022/05/19 14:23:11;;;;;;;;;;;;;;;23.42;42.42;96069.72;10334165;28;1733;-63
2022/05/19 14:28:24;;;;;;;;;;;;;;;23.43;42.61;96067.84;10346950;28;1840;-63
2022/05/19 14:33:26;;;;;;;;;;;;;;;23.43;42.41;96058.03;10338204;28;1937;-63
2022/05/19 14:38:33;;;;;;;;;;;;;;;23.43;42.54;96065.22;10347622;28;1979;-62
2022/05/19 14:43:41;;;;;;;;;;;;;;;23.43;42.58;96060.69;10351530;28;1847;-63
2022/05/19 14:48:42;;;;;;;;;;;;;;;23.44;42.70;96053.53;10353395;28;1888;-63
2022/05/19 14:53:43;;;;;;;;;;;;;;;23.45;42.78;96045.31;10348391;28;1832;-62
2022/05/19 14:58:53;;;;;;;;;;;;;;;23.44;42.74;96037.66;10352744;28;1964;-63
2022/05/19 15:03:54;;;;;;;;;;;;;;;23.44;42.77;96035.81;10353705;28;1896;-63
2022/05/19 15:08:55;;;;;;;;;;;;;;;23.45;42.62;96034.72;10339240;28;1810;-62
2022/05/19 15:13:56;;;;;;;;;;;;;;;23.45;42.83;96029.44;10331540;28;1770;-62
2022/05/19 15:18:56;;;;;;;;;;;;;;;23.45;42.76;96026.78;10336568;28;2670;-63
2022/05/19 15:23:57;;;;;;;;;;;;;;;23.48;42.54;96029.94;10333060;28;1848;-63
2022/05/19 15:28:57;;;;;;;;;;;;;;;23.45;42.79;96037.38;10338898;28;1868;-63
2022/05/19 15:33:57;;;;;;;;;;;;;;;23.48;42.76;96035.22;10348867;28;1734;-63
2022/05/19 15:38:58;;;;;;;;;;;;;;;23.48;42.74;96035.22;10331316;28;1979;-64
2022/05/19 15:43:58;;;;;;;;;;;;;;;23.47;42.89;96033.66;10340819;28;1814;-62
2022/05/19 15:48:58;;;;;;;;;;;;;;;23.46;42.84;96032.88;10334006;28;1782;-64
2022/05/19 15:53:59;;;;;;;;;;;;;;;23.49;42.80;96026.22;10338132;28;1885;-64
2022/05/19 15:58:59;;;;;;;;;;;;;;;23.47;42.85;96021.22;10350610;28;1965;-63
2022/05/19 16:04:00;;;;;;;;;;;;;;;23.47;42.68;96029.16;10355052;28;1843;-63
2022/05/19 16:09:00;;;;;;;;;;;;;;;23.47;42.74;96023.09;10350726;28;1974;-64
2022/05/19 16:14:00;;;;;;;;;;;;;;;23.47;42.52;96023.88;10349125;28;1836;-62
2022/05/19 16:19:01;;;;;;;;;;;;;;;23.46;42.97;96038.16;10349498;28;1930;-64
2022/05/19 16:24:03;;;;;;;;;;;;;;;23.48;43.02;96040.53;10350797;28;1832;-63
2022/05/19 16:29:03;;;;;;;;;;;;;;;23.47;42.81;96039.75;10336781;28;2144;-63
2022/05/19 16:34:04;;;;;;;;;;;;;;;23.47;42.82;96033.66;10329715;28;1872;-63
2022/05/19 16:39:06;;;;;;;;;;;;;;;23.48;42.94;96027.28;10327114;28;1906;-63
2022/05/19 16:44:06;;;;;;;;;;;;;;;23.47;43.17;96023.88;10342789;28;2068;-63
2022/05/19 16:49:07;;;;;;;;;;;;;;;23.47;43.04;96034.47;10332690;28;1879;-62
2022/05/19 16:59:26;;;;;;;;;;;;;;;23.45;43.05;96036.59;10338102;28;1922;-63
2022/05/19 17:04:26;;;;;;;;;;;;;;;23.45;43.07;96036.59;10334871;28;1813;-64
2022/05/19 17:09:27;;;;;;;;;;;;;;;23.46;42.88;96035.53;10333429;28;1835;-63
2022/05/19 17:14:27;;;;;;;;;;;;;;;23.48;43.14;96040.53;10336034;28;1857;-63
2022/05/19 17:19:27;;;;;;;;;;;;;;;23.46;43.14;96038.16;10338829;28;1914;-64
2022/05/19 17:24:28;;;;;;;;;;;;;;;23.47;43.23;96039.75;10336887;28;2082;-64
2022/05/19 17:29:29;;;;;;;;;;;;;;;23.48;43.29;96038.66;10354042;28;1898;-64
2022/05/19 17:34:29;;;;;;;;;;;;;;;23.48;43.37;96038.66;10336976;28;1802;-64
2022/05/19 17:39:30;;;;;;;;;;;;;;;23.48;43.26;96049.25;10334332;28;1914;-64
2022/05/19 17:44:31;;;;;;;;;;;;;;;23.48;43.10;96053.75;10354915;28;1876;-64
2022/05/19 17:49:31;;;;;;;;;;;;;;;23.49;43.43;96047.41;10337936;28;1967;-63
2022/05/19 17:54:32;;;;;;;;;;;;;;;23.49;43.37;96048.19;10354998;28;1788;-63
2022/05/19 17:59:32;;;;;;;;;;;;;;;23.49;43.54;96053.50;10358255;28;1922;-63
2022/05/19 18:04:32;;;;;;;;;;;;;;;23.49;43.17;96060.63;10366211;28;1747;-61
2022/05/19 18:09:33;;;;;;;;;;;;;;;23.49;43.43;96071.22;10344545;28;1876;-63
2022/05/19 18:19:52;;;;;;;;;;;;;;;23.52;43.89;96083.84;10345481;28;1914;-62
2022/05/19 18:24:53;;;;;;;;;;;;;;;23.76;42.48;96077.44;10356546;28;2007;-62
2022/05/19 18:29:54;;;;;;;;;;;;;;;23.61;43.12;96085.59;10357204;28;2086;-62
2022/05/19 18:34:54;;;;;;;;;;;;;;;23.61;43.30;96098.03;10340149;28;2351;-65
2022/05/19 18:39:55;;;;;;;;;;;;;;;23.64;43.01;96106.19;10345421;28;2080;-65
2022/05/19 18:44:57;;;;;;;;;;;;;;;23.67;43.17;96118.88;10341490;28;1858;-66
2022/05/19 18:49:57;;;;;;;;;;;;;;;23.70;42.55;96134.16;10341937;28;1804;-64
2022/05/19 18:54:58;;;;;;;;;;;;;;;23.72;42.46;96144.50;10335637;28;1796;-64
2022/05/19 18:59:58;;;;;;;;;;;;;;;23.73;42.68;96146.06;10343390;28;1977;-64
2022/05/19 19:04:59;;;;;;;;;;;;;;;23.77;42.51;96153.16;10336045;28;1951;-64
2022/05/19 19:10:00;;;;;;;;;;;;;;;23.72;42.41;96157.72;10352392;28;1880;-64
2022/05/19 19:15:00;;;;;;;;;;;;;;;23.74;42.04;96172.22;10351563;28;1780;-64
2022/05/19 19:20:00;;;;;;;;;;;;;;;23.76;41.81;96170.09;10341449;28;1911;-63
2022/05/19 19:25:01;;;;;;;;;;;;;;;23.73;41.47;96165.38;10350212;28;1914;-63
2022/05/19 19:30:03;;;;;;;;;;;;;;;23.66;41.42;96159.63;10348855;28;1812;-64
2022/05/19 19:35:03;;;;;;;;;;;;;;;23.66;41.35;96156.97;10334977;28;1827;-64
2022/05/19 19:40:08;;;;;;;;;;;;;;;23.66;41.22;96154.34;10329430;28;1918;-63
2022/05/19 19:45:10;;;;;;;;;;;;;;;23.67;40.88;96161.22;10353702;28;1879;-63
2022/05/19 19:55:29;;;;;;;;;;;;;;;23.76;39.59;96191.28;10332505;28;1913;-64
2022/05/19 20:00:29;;;;;;;;;;;;;;;23.79;39.31;96184.63;10337059;28;1922;-64
2022/05/19 20:05:31;;;;;;;;;;;;;;;23.70;39.91;96195.06;10354828;28;1840;-65
2022/05/19 20:10:32;;;;;;;;;;;;;;;23.61;40.48;96215.28;10359605;28;1811;-63
2022/05/19 20:15:33;;;;;;;;;;;;;;;23.65;40.56;96226.88;10358577;28;1863;-63
2022/05/19 20:20:34;;;;;;;;;;;;;;;23.69;40.59;96233.19;10352474;28;2256;-62
2022/05/19 20:25:35;;;;;;;;;;;;;;;23.68;40.86;96242.19;10334498;28;1856;-61
2022/05/19 20:30:35;;;;;;;;;;;;;;;23.68;41.01;96241.41;10334157;28;1855;-62
2022/05/19 20:35:35;;;;;;;;;;;;;;;23.68;41.07;96247.47;10339855;28;1814;-62
2022/05/19 20:40:36;;;;;;;;;;;;;;;23.71;41.58;96236.34;10334212;28;1910;-62
2022/05/19 20:45:36;;;;;;;;;;;;;;;23.67;41.57;96243.28;10337602;28;2318;-62
2022/05/19 20:50:37;;;;;;;;;;;;;;;23.69;41.58;96242.97;10336402;28;1745;-62
2022/05/19 20:55:37;;;;;;;;;;;;;;;23.69;41.57;96264.94;10350147;28;1761;-63
2022/05/19 21:00:37;;;;;;;;;;;;;;;23.67;41.72;96267.09;10344429;28;1914;-63
2022/05/19 21:05:38;;;;;;;;;;;;;;;23.65;41.96;96273.72;10346921;28;1848;-62
2022/05/19 21:10:38;;;;;;;;;;;;;;;23.65;42.10;96273.72;10353132;28;1929;-63
2022/05/19 21:15:38;;;;;;;;;;;;;;;23.67;42.12;96276.88;10347076;28;1860;-63
2022/05/19 21:20:39;;;;;;;;;;;;;;;23.66;41.88;96281.38;10347130;28;1923;-63
2022/05/19 21:25:54;;;;;;;;;;;;;;;23.67;41.91;96276.88;10333606;28;1805;-63
2022/05/19 21:30:57;;;;;;;;;;;;;;;23.65;42.21;96274.53;10330252;28;1893;-63
2022/05/19 21:35:58;;;;;;;;;;;;;;;23.65;42.10;96274.53;10340817;28;2586;-63
2022/05/19 21:40:58;;;;;;;;;;;;;;;23.66;42.23;96291.19;10335559;28;1906;-63
2022/05/19 21:46:00;;;;;;;;;;;;;;;23.67;42.32;96298.06;10335406;28;1812;-65
2022/05/19 21:56:20;;;;;;;;;;;;;;;23.68;42.06;96366.59;10344443;28;1975;-63
2022/05/19 22:01:21;;;;;;;;;;;;;;;23.65;41.96;96367.16;10346383;28;1854;-63
2022/05/19 22:11:40;;;;;;;;;;;;;;;23.68;42.45;96408.16;10347462;28;1821;-63
2022/05/19 22:16:41;;;;;;;;;;;;;;;23.68;42.32;96416.88;10354062;28;1906;-63
2022/05/19 22:21:41;;;;;;;;;;;;;;;23.67;42.21;96417.97;10349054;28;1870;-62
2022/05/19 22:26:42;;;;;;;;;;;;;;;23.69;42.25;96415.81;10334344;28;2031;-63
2022/05/19 22:31:42;;;;;;;;;;;;;;;23.72;42.46;96423.19;10357454;28;1867;-63
2022/05/19 22:36:45;;;;;;;;;;;;;;;23.72;42.66;96439.09;10350369;28;2006;-63
2022/05/19 22:41:45;;;;;;;;;;;;;;;23.72;42.81;96473.50;10352635;28;1787;-63
2022/05/19 22:52:04;;;;;;;;;;;;;;;23.72;43.27;96465.56;10339147;28;2008;-64
2022/05/19 22:57:05;;;;;;;;;;;;;;;23.72;43.82;96454.97;10334489;28;1903;-64
2022/05/19 23:02:05;;;;;;;;;;;;;;;23.71;44.08;96450.75;10336672;28;1845;-63
2022/05/19 23:07:06;;;;;;;;;;;;;;;23.70;44.41;96451.81;10340126;28;1869;-64
2022/05/19 23:12:06;;;;;;;;;;;;;;;23.70;44.20;96437.81;10333073;28;1866;-62
2022/05/19 23:17:06;;;;;;;;;;;;;;;23.71;44.50;96436.72;10339120;28;1906;-63
2022/05/19 23:22:07;;;;;;;;;;;;;;;23.69;44.46;96434.34;10335935;28;2140;-64
2022/05/19 23:27:07;;;;;;;;;;;;;;;23.68;44.26;96440.69;10336998;28;1845;-64
2022/05/19 23:37:28;;;;;;;;;;;;;;;23.68;44.07;96414.22;10356763;28;1906;-64
2022/05/19 23:42:28;;;;;;;;;;;;;;;23.69;44.08;96404.44;10339205;28;1818;-64
2022/05/19 23:47:30;;;;;;;;;;;;;;;23.69;44.26;96384.06;10337378;28;2014;-64
2022/05/19 23:52:31;;;;;;;;;;;;;;;23.69;44.36;96386.72;10352803;28;1871;-64
2022/05/19 23:57:32;;;;;;;;;;;;;;;23.70;44.15;96384.88;10354856;28;1911;-64
